Sonic Adventure (DX): Boss Rankings

Records: Times | Rings | Scores | Races | Bosses | Freestyle
Leaders: Times | Rings | Scores | Races | Bosses | Freestyle | Overall
Rank Player Percent Points Date
1 Sonicspeedruner 98.4% 32 03-22-17
2 Gamepro011 97.0% 62 03-22-17
3 Austinf 93.0% 149 03-22-17
4 DarkPolarNight 91.8% 174 03-22-17
5 Jawzun 89.8% 216 03-22-17
6 drminus 89.6% 220 03-22-17
7 Parax 87.8% 258 03-22-17
8 ike6252 87.4% 267 03-22-17
9 Dashjump 85.2% 315 03-22-17
10 Avento128bits 84.7% 324 03-22-17
11 Coolfansonic 84.4% 331 03-22-17
12 DarkspinesSonic 81.4% 394 03-22-17
13 THC98 79.2% 442 03-22-17
14 TheRealShadnic 78.0% 467 03-22-17
15 F-Man 77.2% 485 03-22-17
16 Marth 76.0% 510 03-22-17
17 yoshifan 74.4% 545 03-22-17
18 Mariobutch 74.1% 551 03-22-17
19 PfoSonic 73.0% 574 03-22-17
20 InferSaime 72.7% 580 03-22-17
21 HyperSonic7701 70.9% 619 03-22-17
22 RPGnutter 69.9% 640 03-22-17
23 Paragod 68.3% 674 03-22-17
24 mike89 68.0% 681 03-22-17
25 frankoredstrato 67.7% 687 03-22-17
26 sonicam 63.6% 774 03-22-17
27 Groudon199 63.3% 780 03-22-17
28 SadisticMystic 63.2% 783 03-22-17
29 xXMegaManXx 62.6% 795 03-22-17
30 Stefan 61.9% 810 03-22-17
31 Diamond 60.5% 840 03-22-17
32 Combo 58.2% 888 03-22-17
33 bertin 57.9% 896 03-22-17
34 SkyLights 55.1% 955 03-22-17
35 Arch 49.5% 1075 03-22-17
36 Fr3nZy 49.2% 1080 03-22-17
37 francisco 49.1% 1083 03-22-17
38 OmegaDJ 47.3% 1121 03-22-17
39 Andrea Ritsu 47.1% 1126 03-22-17
40 Omega Rafael Santos 45.8% 1153 03-22-17
41 P1 Pause 44.5% 1181 03-22-17
42 magnum12 42.1% 1231 03-22-17
43 VeritasDL 41.7% 1240 03-22-17
44 Auriman1 38.3% 1312 03-22-17
45 James_Bertolli 36.0% 1362 03-22-17
46 chaos shadow 35.9% 1364 03-22-17
47 teamblackarms 34.2% 1399 03-22-17
48 Hunters13 34.1% 1401 03-22-17
49 FuzZerd 33.4% 1417 03-22-17
50 Drakodan 32.9% 1428 03-22-17
51 Psymar 32.3% 1441 03-22-17
52 Quartz 32.2% 1443 03-22-17
53 Cyan Ryan 32.1% 1444 03-22-17
54 eggFL 31.8% 1451 03-22-17
55 Jerzia 31.0% 1467 03-22-17
56 GerbilSoft 31.0% 1469 03-22-17
57 BigAL49 30.8% 1472 03-22-17
58 elecmouse101 30.2% 1485 03-22-17
59 Thorn 29.9% 1491 03-22-17
59 Webber3000 29.9% 1491 03-22-17
61 videogamemaster777 29.7% 1496 03-22-17
62 Turbos 28.3% 1526 03-22-17
63 Mo Player Banned 28.2% 1527 03-22-17
64 Termon 27.2% 1549 03-22-17
65 Nimrod 26.9% 1555 03-22-17
66 Dave Cramer 26.4% 1566 03-22-17
67 Flying Fox 26.2% 1571 03-22-17
68 nuckrieg 25.0% 1596 03-22-17
69 buddychaos0415 24.9% 1598 03-22-17
70 Shadow Jacky 23.9% 1620 03-22-17
71 Cream147 21.4% 1673 03-22-17
72 supersonicfan 21.1% 1679 03-22-17
73 MiStEr_ShAoLiN 20.8% 1685 03-22-17
73 NintenDan 20.8% 1685 03-22-17
75 thewaytodawnnn 20.7% 1687 03-22-17
76 itsPersonnal 20.4% 1694 03-22-17
77 Aitamen 20.3% 1696 03-22-17
78 The T 20.1% 1700 03-22-17
79 Cybrax 20.0% 1702 03-22-17
80 supersonic465 19.9% 1705 03-22-17
81 SonicWinDX 19.5% 1713 03-22-17
82 Cruizer 18.8% 1727 03-22-17
83 VMU Player Banned 17.7% 1752 03-22-17
84 Game_Complete 17.0% 1765 03-22-17
85 The Great Lord Mick 16.7% 1773 03-22-17
86 Questionguy555 15.7% 1793 03-22-17
87 GreatStar 15.6% 1795 03-22-17
88 Spinballwizard 15.2% 1804 03-22-17
89 Sondow 14.6% 1818 03-22-17
90 sonicandamy Player Banned 14.2% 1825 03-22-17
91 Destroyer121121 13.8% 1834 03-22-17
92 GarnetPrincess 13.2% 1847 03-22-17
93 SonicAD 11.9% 1874 03-22-17
94 Don 11.4% 1885 03-22-17
95 Miles9999 11.1% 1891 03-22-17
96 SuperBlitzCraig 11.0% 1894 03-22-17
97 Siavash Tazari 10.8% 1897 03-22-17
98 Psyknux 10.1% 1912 03-22-17
99 Cutiefox 10.1% 1913 03-22-17
100 knuckles_sonic8 9.7% 1922 03-22-17
100 Werey 9.7% 1922 03-22-17
102 joecoolgames 9.5% 1926 03-22-17
103 mauserman 9.2% 1933 03-22-17
104 Badlex727 8.9% 1938 03-22-17
105 EngiNerd 8.8% 1940 03-22-17
106 Sonic Singularity 8.7% 1943 03-22-17
107 dShadow 8.3% 1951 03-22-17
107 Hipertails12 8.3% 1951 03-22-17
109 Aiko 8.2% 1953 03-22-17
110 Shanekilz 7.9% 1960 03-22-17
111 Therio 7.6% 1967 03-22-17
112 Mastakirby 7.4% 1971 03-22-17
113 TommyeAsY 7.0% 1978 03-22-17
114 chainchumper 7.0% 1979 03-22-17
115 FocusSight64 6.8% 1983 03-22-17
115 sonic29887 6.8% 1983 03-22-17
117 TheChaosEmeraIds 6.7% 1985 03-22-17
118 Chao_Fan 6.4% 1991 03-22-17
119 djmat 6.1% 1999 03-22-17
120 HHNNBBHHN 6.0% 2001 03-22-17
121 paulie9990 5.9% 2003 03-22-17
122 tal39h 5.8% 2005 03-22-17
123 Sogeking 5.4% 2013 03-22-17
124 Brian_pso 4.9% 2024 03-22-17
125 Chawkk 4.8% 2025 03-22-17
126 SilvertheAlmighty 4.5% 2032 03-22-17
127 MK 4.5% 2033 03-22-17
127 SpinDashMaster 4.5% 2033 03-22-17
129 MastaToken 4.0% 2042 03-22-17
130 Sonique Hedgehog 3.9% 2045 03-22-17
130 SpiritDragon1995 3.9% 2045 03-22-17
132 KinkyCadence 3.6% 2052 03-22-17
133 PsyBorg 3.4% 2056 03-22-17
134 Mad Andy 3.3% 2057 03-22-17
135 FSSRandomvids 3.2% 2059 03-22-17
136 koinu93 2.9% 2067 03-22-17
136 Rolken 2.9% 2067 03-22-17
138 Xia 2.8% 2069 03-22-17
139 andres430 2.5% 2074 03-22-17
140 dabestgamer 2.2% 2081 03-22-17
141 shadowblast63 Player Banned 2.2% 2082 03-22-17
142 crazy1993 2.1% 2083 03-22-17
143 Illidan 2.0% 2086 03-22-17
144 Richied 1.9% 2088 03-22-17
145 DanielTheFalcon 1.7% 2092 03-22-17
145 gamer1245 1.7% 2092 03-22-17
147 Iwannabelink 1.6% 2093 03-22-17
148 niscool 1.4% 2099 03-22-17
148 oTaiIilLsS 1.4% 2099 03-22-17
150 soniccoloursunleashed 1.3% 2100 03-22-17
151 Redd 1.1% 2105 03-22-17
152 ieatatsonic 1.0% 2106 03-22-17
153 LinksDarkArrows 0.8% 2111 03-22-17
154 Lil_Dude 0.7% 2112 03-22-17
155 Cbwade15 0.4% 2119 03-22-17
156 neaolas 0.3% 2121 03-22-17
157 BlankTH 0.2% 2124 03-22-17
158 Heroes_Hater 0.1% 2125 03-22-17
159 S-MS32X-S 0.0% 2127 03-22-17
160 KaM Mark MaK 0.0% 2129 03-22-17
160 MegabombBlade 0.0% 2129 03-22-17

This page is using the New Data Table System. [FUTURE]

Game ID: 3 | Category ID: 6
Hits: 4,469 | Hits This Month: 28 | DB Calls: 24 | Mem Usage: 5.35 MB | Time: 0.07s | Printable

The Sonic Center v3.9
Copyright 2003-2011 by The Sonic Center Team.